Time;durP1;ratioP1;P1;durP2;ratioP2;P2;SDS_P1;SDS_P2;PMS_P1;PMS_P2;Temp;Humidity;BMP_temperature;BMP_pressure;BME280_temperature;BME280_humidity;BME280_pressure;Samples;Min_cycle;Max_cycle;Signal;HPM_P1;HPM_P2
2021/04/21 00:02:19;;;;;;;26.52;12.20;;;8.10;99.90;;;;;;4849551;29;20061;-62
2021/04/21 00:04:47;;;;;;;27.98;12.40;;;7.90;99.90;;;;;;4841737;29;20064;-62
2021/04/21 00:07:16;;;;;;;26.13;12.52;;;7.70;99.90;;;;;;4855860;29;20601;-62
2021/04/21 00:09:45;;;;;;;25.20;11.68;;;7.60;99.90;;;;;;4854776;29;20102;-62
2021/04/21 00:12:13;;;;;;;27.08;11.57;;;7.70;99.90;;;;;;4848508;29;20042;-62
2021/04/21 00:14:40;;;;;;;25.08;11.77;;;7.80;99.90;;;;;;4858206;29;20561;-62
2021/04/21 00:17:07;;;;;;;27.17;12.32;;;7.90;99.90;;;;;;4862096;29;20494;-62
2021/04/21 00:19:37;;;;;;;26.60;12.35;;;7.90;99.90;;;;;;4851061;29;20061;-61
2021/04/21 00:22:06;;;;;;;26.65;11.60;;;7.90;99.90;;;;;;4854103;29;20046;-62
2021/04/21 00:24:35;;;;;;;27.13;12.60;;;7.80;99.90;;;;;;4829955;29;20049;-62
2021/04/21 00:27:03;;;;;;;25.52;12.15;;;7.60;99.90;;;;;;4837196;29;20378;-62
2021/04/21 00:29:30;;;;;;;24.88;11.88;;;7.60;99.90;;;;;;4850114;29;20037;-62
2021/04/21 00:32:00;;;;;;;23.10;10.60;;;7.50;99.90;;;;;;4846640;29;20431;-62
2021/04/21 00:34:29;;;;;;;24.85;10.38;;;7.60;99.90;;;;;;4865695;29;20074;-62
2021/04/21 00:36:57;;;;;;;22.25;10.57;;;7.60;99.90;;;;;;4864979;29;20049;-62
2021/04/21 00:39:24;;;;;;;19.42;9.93;;;7.60;99.90;;;;;;4852661;29;20502;-62
2021/04/21 00:42:25;;;;;;;19.90;9.73;;;7.60;99.90;;;;;;4870127;29;20101;-62
2021/04/21 00:44:58;;;;;;;18.50;9.25;;;7.50;99.90;;;;;;4851756;29;20429;-62
2021/04/21 00:47:39;;;;;;;23.13;10.10;;;7.60;99.90;;;;;;4865287;29;20034;-62
2021/04/21 00:50:13;;;;;;;18.65;9.57;;;7.50;99.90;;;;;;4852453;29;20103;-62
2021/04/21 00:53:23;;;;;;;19.98;9.70;;;7.40;99.90;;;;;;4850302;29;20049;-62
2021/04/21 00:56:01;;;;;;;19.40;9.95;;;7.40;99.90;;;;;;4833183;29;20049;-62
2021/04/21 00:58:40;;;;;;;22.75;9.93;;;7.50;99.90;;;;;;4833874;29;20055;-62
2021/04/21 01:01:10;;;;;;;19.38;9.32;;;7.40;99.90;;;;;;4842041;29;20401;-62
2021/04/21 01:03:38;;;;;;;20.35;9.80;;;7.40;99.90;;;;;;4860834;29;20066;-62
2021/04/21 01:06:10;;;;;;;22.25;9.40;;;7.40;99.90;;;;;;4847788;29;20053;-62
2021/04/21 01:08:41;;;;;;;19.65;8.82;;;7.30;99.90;;;;;;4837400;29;20046;-62
2021/04/21 01:11:46;;;;;;;14.55;7.60;;;7.40;99.90;;;;;;4832557;29;20053;-62
2021/04/21 01:14:21;;;;;;;15.82;7.25;;;7.30;99.90;;;;;;4842963;29;20050;-62
2021/04/21 01:16:54;;;;;;;17.63;8.20;;;7.20;99.90;;;;;;4864578;29;20041;-62
2021/04/21 01:19:30;;;;;;;21.30;9.13;;;7.30;99.90;;;;;;4844987;29;20058;-62
2021/04/21 01:22:37;;;;;;;20.60;9.05;;;7.30;99.90;;;;;;4857305;29;20049;-62
2021/04/21 01:25:53;;;;;;;22.52;9.65;;;7.40;99.90;;;;;;4850355;29;20042;-62
2021/04/21 01:28:23;;;;;;;18.58;8.98;;;7.30;99.90;;;;;;4779060;30;20059;-62
2021/04/21 01:30:51;;;;;;;20.50;9.75;;;7.30;99.90;;;;;;4769072;30;20054;-62
2021/04/21 01:33:21;;;;;;;20.23;9.10;;;7.30;99.90;;;;;;4770956;29;20056;-62
2021/04/21 01:36:03;;;;;;;21.23;9.70;;;7.30;99.90;;;;;;4785418;29;20357;-61
2021/04/21 01:38:32;;;;;;;24.90;10.02;;;7.20;99.90;;;;;;4786008;30;20531;-61
2021/04/21 01:41:05;;;;;;;25.20;10.35;;;7.00;99.90;;;;;;4785412;29;20068;-61
2021/04/21 01:43:41;;;;;;;25.27;9.90;;;7.10;99.90;;;;;;4780944;29;20063;-61
2021/04/21 01:46:11;;;;;;;23.77;9.90;;;7.00;99.90;;;;;;4774072;29;20065;-61
2021/04/21 01:48:39;;;;;;;26.13;10.73;;;7.10;99.90;;;;;;4780349;29;20195;-61
2021/04/21 01:51:31;;;;;;;25.42;10.32;;;7.00;99.90;;;;;;4776525;29;20093;-62
2021/04/21 01:54:19;;;;;;;25.58;9.65;;;6.90;99.90;;;;;;4783290;30;20162;-62
2021/04/21 01:56:51;;;;;;;24.30;10.18;;;6.90;99.90;;;;;;4766668;30;20055;-62
2021/04/21 01:59:31;;;;;;;21.23;10.27;;;7.00;99.90;;;;;;4784555;30;20622;-62
2021/04/21 02:02:03;;;;;;;20.67;10.07;;;7.00;99.90;;;;;;4814091;29;20061;-62
2021/04/21 02:04:54;;;;;;;25.48;10.65;;;7.10;99.90;;;;;;4852139;29;20045;-62
2021/04/21 02:07:35;;;;;;;22.83;9.63;;;7.20;99.90;;;;;;4859356;29;20046;-62
2021/04/21 02:10:15;;;;;;;19.45;9.02;;;7.00;99.90;;;;;;4861701;29;20102;-62
2021/04/21 02:12:55;;;;;;;22.85;9.68;;;7.00;99.90;;;;;;4852139;29;20049;-62
2021/04/21 02:15:56;;;;;;;19.27;8.82;;;6.90;99.90;;;;;;4832712;29;20525;-62
2021/04/21 02:18:48;;;;;;;21.35;9.43;;;6.80;99.90;;;;;;4848768;29;20054;-62
2021/04/21 02:21:25;;;;;;;21.53;9.80;;;6.90;99.90;;;;;;4851884;29;20117;-62
2021/04/21 02:24:13;;;;;;;22.30;8.60;;;7.00;99.90;;;;;;4863997;29;20640;-62
2021/04/21 02:26:47;;;;;;;19.63;8.55;;;6.80;99.90;;;;;;4848184;29;20390;-62
2021/04/21 02:29:44;;;;;;;20.80;10.60;;;6.90;99.90;;;;;;4860819;29;20101;-62
2021/04/21 02:32:41;;;;;;;17.58;8.60;;;6.90;99.90;;;;;;4845013;29;20072;-62
2021/04/21 02:35:16;;;;;;;19.20;9.23;;;7.00;99.90;;;;;;4830817;29;20077;-62
2021/04/21 02:38:08;;;;;;;15.05;7.47;;;6.90;99.90;;;;;;4842125;29;20424;-62
2021/04/21 02:40:54;;;;;;;17.05;8.00;;;6.90;99.90;;;;;;4835435;29;20581;-62
2021/04/21 02:43:56;;;;;;;17.80;7.82;;;6.70;99.90;;;;;;4849592;29;20128;-62
2021/04/21 02:47:00;;;;;;;16.13;7.43;;;6.60;99.90;;;;;;4826181;29;20061;-61
2021/04/21 02:49:45;;;;;;;16.55;7.30;;;6.60;99.90;;;;;;4850379;29;20056;-61
2021/04/21 02:52:59;;;;;;;16.17;8.35;;;6.50;99.90;;;;;;4859267;29;20057;-62
2021/04/21 02:55:58;;;;;;;16.90;7.43;;;6.50;99.90;;;;;;4821047;29;20061;-62
2021/04/21 02:58:51;;;;;;;15.10;7.15;;;6.30;99.90;;;;;;4841068;29;20057;-62
2021/04/21 03:01:29;;;;;;;18.55;8.55;;;6.30;99.90;;;;;;4846227;29;20073;-62
2021/04/21 03:04:22;;;;;;;15.63;8.93;;;6.10;99.90;;;;;;4855405;29;20563;-62
2021/04/21 03:06:49;;;;;;;17.45;8.60;;;6.10;99.90;;;;;;4859163;29;20045;-62
2021/04/21 03:09:25;;;;;;;17.23;7.78;;;6.10;99.90;;;;;;4847469;29;20350;-62
2021/04/21 03:11:56;;;;;;;17.63;8.32;;;6.00;99.90;;;;;;4840425;29;20058;-62
2021/04/21 03:14:27;;;;;;;16.75;8.02;;;6.00;99.90;;;;;;4827758;29;20050;-62
2021/04/21 03:16:58;;;;;;;21.38;9.43;;;5.90;99.90;;;;;;4859690;29;20060;-62
2021/04/21 03:19:47;;;;;;;23.70;10.68;;;5.90;99.90;;;;;;4859026;29;20152;-62
2021/04/21 03:22:15;;;;;;;21.23;9.77;;;5.90;99.90;;;;;;4856651;29;20060;-62
2021/04/21 03:25:10;;;;;;;20.42;9.98;;;6.10;99.90;;;;;;4845384;29;20042;-62
2021/04/21 03:27:41;;;;;;;20.92;9.90;;;6.20;99.90;;;;;;4852205;29;20137;-62
2021/04/21 03:30:11;;;;;;;20.95;9.20;;;6.00;99.90;;;;;;4849139;29;20054;-62
2021/04/21 03:32:43;;;;;;;20.05;10.13;;;5.90;99.90;;;;;;4830967;29;20381;-62
2021/04/21 03:35:12;;;;;;;20.17;8.45;;;5.80;99.90;;;;;;4841199;29;20052;-62
2021/04/21 03:38:06;;;;;;;15.35;8.70;;;5.90;99.90;;;;;;4843270;29;20052;-62
2021/04/21 03:40:34;;;;;;;17.38;8.13;;;5.80;99.90;;;;;;4846910;29;20065;-62
2021/04/21 03:43:02;;;;;;;17.85;8.00;;;5.80;99.90;;;;;;4857879;29;20049;-62
2021/04/21 03:45:30;;;;;;;17.90;8.95;;;5.80;99.90;;;;;;4850182;29;20106;-62
2021/04/21 03:47:57;;;;;;;22.40;9.70;;;5.90;99.90;;;;;;4852438;29;20045;-62
2021/04/21 03:50:26;;;;;;;23.73;10.32;;;6.00;99.90;;;;;;4860701;29;20567;-62
2021/04/21 03:53:02;;;;;;;21.10;9.43;;;6.00;99.90;;;;;;4838297;29;20132;-62
2021/04/21 03:55:30;;;;;;;18.70;9.35;;;6.10;99.90;;;;;;4848272;29;20049;-62
2021/04/21 03:58:01;;;;;;;22.95;9.50;;;6.10;99.90;;;;;;4850218;29;20505;-62
2021/04/21 04:00:31;;;;;;;21.70;9.52;;;5.90;99.90;;;;;;4845722;29;20496;-62
2021/04/21 04:03:10;;;;;;;16.83;8.25;;;6.00;99.90;;;;;;4851592;29;20049;-62
2021/04/21 04:05:47;;;;;;;15.80;7.78;;;6.00;99.90;;;;;;4842357;29;20053;-62
2021/04/21 04:08:17;;;;;;;16.42;8.25;;;6.00;99.90;;;;;;4857907;29;20049;-61
2021/04/21 04:10:49;;;;;;;22.92;10.02;;;6.20;99.90;;;;;;4845089;29;20046;-62
2021/04/21 04:13:17;;;;;;;25.97;11.57;;;6.20;99.90;;;;;;4848951;29;20042;-62
2021/04/21 04:15:46;;;;;;;20.95;9.55;;;6.20;99.90;;;;;;4865059;29;20045;-62
2021/04/21 04:18:14;;;;;;;24.67;9.73;;;6.00;99.90;;;;;;4856809;29;20528;-62
2021/04/21 04:20:44;;;;;;;16.00;7.38;;;6.20;99.90;;;;;;4854963;29;20045;-62
2021/04/21 04:23:12;;;;;;;15.45;7.43;;;6.00;99.90;;;;;;4849743;29;20540;-62
2021/04/21 04:25:43;;;;;;;13.68;7.07;;;6.10;99.90;;;;;;4842751;29;20134;-62
2021/04/21 04:28:11;;;;;;;15.70;7.65;;;5.90;99.90;;;;;;4848751;29;20056;-62
2021/04/21 04:30:39;;;;;;;14.70;6.60;;;5.70;99.90;;;;;;4849455;29;20093;-62
2021/04/21 04:33:07;;;;;;;14.52;6.88;;;5.70;99.90;;;;;;4840441;29;20525;-62
2021/04/21 04:35:35;;;;;;;11.68;6.68;;;5.90;99.90;;;;;;4856445;29;20056;-62
2021/04/21 04:38:02;;;;;;;12.57;6.35;;;5.90;99.90;;;;;;4846903;29;20053;-62
2021/04/21 04:40:30;;;;;;;15.45;7.38;;;6.00;99.90;;;;;;4854877;29;20064;-62
2021/04/21 04:42:58;;;;;;;14.23;6.65;;;5.90;99.90;;;;;;4842009;29;20057;-62
2021/04/21 04:45:28;;;;;;;13.48;6.80;;;5.90;99.90;;;;;;4851703;29;20057;-62
2021/04/21 04:47:57;;;;;;;15.77;7.35;;;6.00;99.90;;;;;;4859122;29;20045;-62
2021/04/21 04:50:24;;;;;;;12.43;5.88;;;5.90;99.90;;;;;;4853176;29;20041;-62
2021/04/21 04:52:55;;;;;;;17.05;7.00;;;5.90;99.90;;;;;;4849990;29;20143;-62
2021/04/21 04:55:23;;;;;;;13.25;6.38;;;6.00;99.90;;;;;;4854701;29;20042;-62
2021/04/21 04:57:53;;;;;;;18.38;7.95;;;6.00;99.90;;;;;;4851786;29;20054;-62
2021/04/21 05:00:27;;;;;;;20.50;10.30;;;6.10;99.90;;;;;;4844488;29;20077;-62
2021/04/21 05:03:01;;;;;;;18.40;9.07;;;6.20;99.90;;;;;;4858569;29;20052;-62
2021/04/21 05:05:28;;;;;;;18.65;9.15;;;6.30;99.90;;;;;;4856323;29;20049;-62
2021/04/21 05:08:05;;;;;;;17.10;9.27;;;6.20;99.90;;;;;;4849629;29;20046;-62
2021/04/21 05:10:41;;;;;;;15.70;9.10;;;6.30;99.90;;;;;;4852989;29;20057;-62
2021/04/21 05:13:13;;;;;;;16.25;8.07;;;6.00;99.90;;;;;;4843825;29;20052;-62
2021/04/21 05:15:39;;;;;;;20.38;8.98;;;5.80;99.90;;;;;;4844363;29;20509;-62
2021/04/21 05:18:24;;;;;;;16.30;7.70;;;5.60;99.90;;;;;;4834926;29;20082;-62
2021/04/21 05:21:22;;;;;;;16.38;8.07;;;5.80;99.90;;;;;;4855315;29;20578;-62
2021/04/21 05:24:21;;;;;;;19.05;7.88;;;5.60;99.90;;;;;;4834959;29;20142;-63
2021/04/21 05:26:50;;;;;;;18.27;8.10;;;5.90;99.90;;;;;;4840496;29;20747;-63
2021/04/21 05:29:26;;;;;;;21.08;10.48;;;6.10;99.90;;;;;;4857398;29;20049;-63
2021/04/21 05:32:30;;;;;;;26.17;11.38;;;6.10;99.90;;;;;;4840300;29;20486;-62
2021/04/21 05:35:34;;;;;;;90.47;30.63;;;6.20;99.90;;;;;;4841032;29;20837;-62
2021/04/21 05:38:33;;;;;;;76.20;26.58;;;6.30;99.90;;;;;;4832885;29;20053;-62
2021/04/21 05:41:47;;;;;;;41.90;19.13;;;6.50;99.90;;;;;;4766105;30;20059;-62
2021/04/21 05:44:19;;;;;;;22.13;10.68;;;6.50;99.90;;;;;;4706136;30;20062;-62
2021/04/21 05:47:10;;;;;;;26.88;11.82;;;6.70;99.90;;;;;;4699742;30;20058;-62
2021/04/21 05:49:48;;;;;;;24.95;12.20;;;6.60;99.90;;;;;;4696665;30;20057;-62
2021/04/21 05:52:39;;;;;;;33.85;12.57;;;6.80;99.90;;;;;;4684327;30;20061;-62
2021/04/21 05:55:27;;;;;;;28.58;13.13;;;6.70;99.90;;;;;;4693777;30;20065;-62
2021/04/21 05:58:02;;;;;;;28.42;12.52;;;6.70;99.90;;;;;;4696293;30;20098;-62
2021/04/21 06:00:49;;;;;;;34.10;13.73;;;6.80;99.90;;;;;;4694374;30;20613;-62
2021/04/21 06:03:19;;;;;;;29.27;14.23;;;7.00;99.90;;;;;;4695052;30;20054;-62
2021/04/21 06:05:46;;;;;;;43.42;17.75;;;7.00;99.90;;;;;;4692807;30;20750;-62
2021/04/21 06:08:13;;;;;;;44.53;17.73;;;6.90;99.90;;;;;;4680950;30;20057;-62
2021/04/21 06:10:40;;;;;;;40.67;17.05;;;6.70;99.90;;;;;;4693473;30;20155;-64
2021/04/21 06:13:07;;;;;;;42.80;17.60;;;6.70;99.90;;;;;;4706472;30;20061;-64
2021/04/21 06:15:36;;;;;;;37.83;15.65;;;6.60;99.90;;;;;;4698898;30;20060;-64
2021/04/21 06:18:08;;;;;;;33.53;15.60;;;6.80;99.90;;;;;;4722149;30;20547;-64
2021/04/21 06:20:37;;;;;;;29.27;13.50;;;6.80;99.90;;;;;;4804989;29;20049;-64
2021/04/21 06:23:10;;;;;;;35.03;14.05;;;7.00;99.90;;;;;;4847444;29;20065;-64
2021/04/21 06:25:39;;;;;;;32.03;14.82;;;7.00;99.90;;;;;;4839870;29;20050;-64
2021/04/21 06:28:12;;;;;;;42.47;19.23;;;7.00;99.90;;;;;;4835399;29;20053;-64
2021/04/21 06:30:40;;;;;;;34.75;15.60;;;7.00;99.90;;;;;;4852091;29;20053;-64
2021/04/21 06:33:08;;;;;;;35.80;16.50;;;7.10;99.90;;;;;;4845492;29;20041;-64
2021/04/21 06:35:36;;;;;;;41.15;17.20;;;7.20;99.90;;;;;;4842697;29;20057;-64
2021/04/21 06:38:05;;;;;;;35.55;15.63;;;7.30;99.90;;;;;;4850819;29;20065;-64
2021/04/21 06:40:33;;;;;;;34.42;15.57;;;7.50;99.90;;;;;;4848842;29;20121;-64
2021/04/21 06:43:00;;;;;;;32.13;14.73;;;7.60;99.90;;;;;;4854985;29;20061;-64
2021/04/21 06:45:35;;;;;;;35.15;15.75;;;7.80;99.90;;;;;;4833867;29;20054;-64
2021/04/21 06:48:04;;;;;;;35.55;16.40;;;7.90;99.90;;;;;;4843873;29;20054;-64
2021/04/21 06:50:37;;;;;;;33.17;15.73;;;8.00;99.90;;;;;;4841004;29;20053;-64
2021/04/21 06:53:05;;;;;;;;;;;8.20;99.90;;;;;;4842721;29;20053;-64
2021/04/21 06:55:32;;;;;;;33.17;15.55;;;8.20;99.90;;;;;;4826546;29;19935;-64
2021/04/21 06:58:00;;;;;;;38.28;16.33;;;8.30;99.90;;;;;;4839478;29;20152;-64
2021/04/21 07:00:28;;;;;;;37.38;16.77;;;8.50;99.90;;;;;;4845532;29;20398;-64
2021/04/21 07:02:58;;;;;;;38.97;16.98;;;8.60;99.90;;;;;;4829368;29;20409;-64
2021/04/21 07:05:41;;;;;;;36.97;17.05;;;8.70;99.90;;;;;;4845995;29;20133;-64
2021/04/21 07:08:15;;;;;;;41.55;20.20;;;8.80;99.90;;;;;;4849079;29;20046;-64
2021/04/21 07:10:46;;;;;;;40.97;18.83;;;8.90;99.90;;;;;;4844154;29;20046;-64
2021/04/21 07:13:17;;;;;;;46.50;20.77;;;8.80;99.90;;;;;;4825999;29;20557;-64
2021/04/21 07:15:44;;;;;;;43.10;18.63;;;8.80;99.90;;;;;;4844118;29;20069;-64
2021/04/21 07:18:17;;;;;;;39.35;19.08;;;9.00;99.90;;;;;;4816790;29;20057;-64
2021/04/21 07:20:44;;;;;;;42.22;18.33;;;9.20;99.90;;;;;;4851861;29;20401;-64
2021/04/21 07:23:13;;;;;;;43.13;19.58;;;9.20;99.90;;;;;;4846097;29;20053;-64
2021/04/21 07:25:46;;;;;;;45.88;20.35;;;9.30;99.90;;;;;;4827299;29;20060;-64
2021/04/21 07:28:14;;;;;;;39.25;18.75;;;9.40;99.90;;;;;;4843812;29;20066;-64
2021/04/21 07:30:41;;;;;;;42.05;19.50;;;9.40;99.90;;;;;;4843466;29;20425;-67
2021/04/21 07:33:08;;;;;;;34.05;16.25;;;9.40;99.90;;;;;;4822768;29;20050;-71
2021/04/21 07:35:35;;;;;;;43.60;18.58;;;9.50;99.90;;;;;;4830371;29;20049;-68
2021/04/21 07:38:15;;;;;;;32.45;14.38;;;9.60;99.90;;;;;;4841659;29;20092;-67
2021/04/21 07:40:42;;;;;;;31.25;14.75;;;9.70;99.90;;;;;;4836038;29;20076;-67
2021/04/21 07:43:11;;;;;;;32.28;15.52;;;9.80;99.90;;;;;;4861389;29;20457;-67
2021/04/21 07:45:43;;;;;;;30.38;16.27;;;9.90;99.90;;;;;;4844753;29;20042;-68
2021/04/21 07:48:34;;;;;;;32.28;15.20;;;10.00;99.90;;;;;;4828970;29;20802;-66
2021/04/21 07:51:16;;;;;;;34.08;15.05;;;10.10;99.90;;;;;;4827894;29;20095;-64
2021/04/21 07:53:50;;;;;;;34.58;15.93;;;10.30;99.90;;;;;;4838087;29;20060;-69
2021/04/21 07:56:19;;;;;;;33.80;14.50;;;10.40;99.90;;;;;;4820719;29;20510;-68
2021/04/21 07:58:45;;;;;;;41.60;17.05;;;10.40;99.90;;;;;;4829323;29;20058;-68
2021/04/21 08:01:13;;;;;;;33.05;15.50;;;10.40;99.90;;;;;;4809713;29;20118;-64
2021/04/21 08:03:40;;;;;;;30.35;14.68;;;10.40;99.90;;;;;;4831942;29;20058;-63
2021/04/21 08:06:08;;;;;;;37.78;16.95;;;10.50;99.90;;;;;;4819322;29;20130;-62
2021/04/21 08:08:36;;;;;;;35.13;15.88;;;10.50;99.90;;;;;;4835999;29;20049;-63
2021/04/21 08:11:04;;;;;;;31.75;15.80;;;10.60;99.90;;;;;;4848676;29;20064;-71
2021/04/21 08:13:42;;;;;;;40.28;16.95;;;10.70;99.90;;;;;;4835699;29;20052;-71
2021/04/21 08:16:30;;;;;;;33.38;16.42;;;10.80;99.90;;;;;;4829556;29;20132;-64
2021/04/21 08:18:59;;;;;;;31.85;15.57;;;10.90;99.90;;;;;;4839291;29;20069;-64
2021/04/21 08:21:47;;;;;;;30.80;15.80;;;11.00;99.90;;;;;;4849486;29;20061;-64
2021/04/21 08:24:20;;;;;;;36.65;17.55;;;11.00;99.90;;;;;;4823422;29;20058;-64
2021/04/21 08:26:51;;;;;;;34.95;17.13;;;11.10;99.90;;;;;;4847383;29;20053;-64
2021/04/21 08:29:18;;;;;;;34.55;16.20;;;11.20;99.90;;;;;;4828926;29;20049;-65
2021/04/21 08:31:46;;;;;;;34.55;17.45;;;11.20;99.90;;;;;;4848327;29;20049;-65
2021/04/21 08:34:13;;;;;;;31.05;15.73;;;11.30;99.90;;;;;;4850053;29;20046;-65
2021/04/21 08:36:40;;;;;;;30.17;16.20;;;11.50;99.90;;;;;;4848727;29;20049;-65
2021/04/21 08:39:07;;;;;;;30.45;15.93;;;11.50;99.90;;;;;;4842643;29;20054;-65
2021/04/21 08:41:39;;;;;;;36.45;17.73;;;11.60;99.90;;;;;;4853326;29;20544;-65
2021/04/21 08:44:07;;;;;;;37.30;16.40;;;11.80;99.90;;;;;;4848725;29;20050;-65
2021/04/21 08:46:33;;;;;;;33.45;17.73;;;11.90;99.90;;;;;;4838684;29;20053;-64
2021/04/21 08:49:01;;;;;;;34.25;16.20;;;11.90;99.90;;;;;;4834331;29;20046;-64
2021/04/21 08:51:29;;;;;;;35.13;17.67;;;12.00;99.90;;;;;;4834819;29;20057;-64
2021/04/21 08:54:07;;;;;;;36.20;18.42;;;12.10;99.90;;;;;;4820179;29;20068;-65
2021/04/21 08:56:36;;;;;;;35.97;18.83;;;12.20;99.90;;;;;;4830016;29;20054;-65
2021/04/21 08:59:07;;;;;;;35.40;17.60;;;12.40;99.90;;;;;;4839314;29;20102;-65
2021/04/21 09:01:34;;;;;;;33.42;16.33;;;12.40;99.90;;;;;;4850803;29;20124;-65
2021/04/21 09:04:01;;;;;;;33.00;17.75;;;12.50;99.90;;;;;;4846964;29;20068;-65
2021/04/21 09:06:28;;;;;;;29.50;16.35;;;12.60;99.90;;;;;;4833102;29;20046;-65
2021/04/21 09:08:55;;;;;;;31.85;16.38;;;12.70;99.90;;;;;;4829564;29;20057;-65
2021/04/21 09:11:23;;;;;;;34.78;17.98;;;12.90;99.90;;;;;;4847859;29;20183;-65
2021/04/21 09:13:51;;;;;;;36.88;18.13;;;12.90;99.90;;;;;;4853265;29;20049;-65
2021/04/21 09:16:18;;;;;;;33.75;16.40;;;13.10;99.90;;;;;;4852307;29;20045;-65
2021/04/21 09:18:46;;;;;;;36.63;18.05;;;13.20;99.90;;;;;;4847332;29;20050;-64
2021/04/21 09:21:29;;;;;;;31.00;16.05;;;13.30;99.90;;;;;;4856698;29;20489;-64
2021/04/21 09:23:56;;;;;;;35.60;17.45;;;13.40;99.90;;;;;;4835601;29;20073;-64
2021/04/21 09:26:32;;;;;;;30.15;15.32;;;13.30;99.90;;;;;;4835928;29;20050;-64
2021/04/21 09:28:59;;;;;;;29.85;15.68;;;13.60;99.90;;;;;;4846831;29;20038;-64
2021/04/21 09:31:28;;;;;;;29.38;15.88;;;13.80;99.90;;;;;;4854745;29;20125;-64
2021/04/21 09:34:07;;;;;;;29.85;14.93;;;13.90;99.90;;;;;;4841012;29;20419;-65
2021/04/21 09:36:37;;;;;;;29.67;15.55;;;14.20;99.90;;;;;;4840415;29;20044;-64
2021/04/21 09:39:37;;;;;;;30.20;16.30;;;14.20;99.90;;;;;;4834906;29;20148;-66
2021/04/21 09:42:04;;;;;;;30.73;16.10;;;14.20;99.90;;;;;;4829627;29;20060;-66
2021/04/21 09:44:31;;;;;;;33.75;17.52;;;14.40;99.90;;;;;;4849848;29;20050;-64
2021/04/21 09:47:00;;;;;;;28.02;14.38;;;14.50;99.60;;;;;;4854386;29;20045;-64
2021/04/21 09:49:36;;;;;;;30.65;15.23;;;14.60;98.80;;;;;;4843843;29;20046;-63
2021/04/21 09:52:12;;;;;;;25.50;14.05;;;14.70;96.60;;;;;;4848529;29;20057;-64
2021/04/21 09:54:42;;;;;;;22.58;12.90;;;14.90;96.90;;;;;;4849428;29;20045;-64
2021/04/21 09:57:23;;;;;;;24.25;13.52;;;15.00;96.00;;;;;;4850271;29;20053;-64
2021/04/21 09:59:58;;;;;;;25.88;14.68;;;15.00;96.30;;;;;;4830776;29;20057;-64
2021/04/21 10:02:37;;;;;;;27.15;14.40;;;15.40;93.30;;;;;;4842010;29;20104;-64
2021/04/21 10:05:27;;;;;;;26.48;13.85;;;15.40;92.60;;;;;;4841982;29;20085;-64
2021/04/21 10:08:14;;;;;;;24.58;12.20;;;15.50;91.60;;;;;;4833887;29;20057;-67
2021/04/21 10:10:42;;;;;;;22.13;13.18;;;15.50;90.80;;;;;;4836489;29;20053;-63
2021/04/21 10:13:39;;;;;;;27.13;13.60;;;15.60;91.70;;;;;;4851138;29;20046;-64
2021/04/21 10:16:08;;;;;;;23.52;12.30;;;15.60;90.60;;;;;;4846853;29;20092;-64
2021/04/21 10:18:36;;;;;;;23.90;12.15;;;15.80;86.80;;;;;;4854465;29;20041;-64
2021/04/21 10:21:04;;;;;;;19.85;11.57;;;15.90;87.50;;;;;;4854202;29;20057;-64
2021/04/21 10:23:31;;;;;;;17.77;10.98;;;16.00;90.80;;;;;;4837596;29;20050;-64
2021/04/21 10:26:06;;;;;;;21.50;11.18;;;16.10;86.30;;;;;;4840657;29;20046;-65
2021/04/21 10:28:34;;;;;;;20.55;12.13;;;16.30;86.90;;;;;;4834874;29;20038;-64
2021/04/21 10:31:02;;;;;;;24.33;10.27;;;16.50;82.70;;;;;;4834154;29;20046;-64
2021/04/21 10:33:28;;;;;;;18.30;10.07;;;16.70;76.80;;;;;;4852070;29;20680;-64
2021/04/21 10:35:55;;;;;;;14.82;8.70;;;16.80;75.80;;;;;;4848746;29;20505;-64
2021/04/21 10:38:25;;;;;;;14.05;8.43;;;16.70;70.40;;;;;;4852337;29;20072;-64
2021/04/21 10:41:22;;;;;;;15.57;8.43;;;16.90;67.20;;;;;;4829862;29;20061;-63
2021/04/21 10:43:49;;;;;;;16.05;8.85;;;16.90;70.30;;;;;;4848767;29;20042;-63
2021/04/21 10:46:17;;;;;;;13.98;8.07;;;17.10;67.70;;;;;;4853452;29;20715;-63
2021/04/21 10:48:45;;;;;;;16.65;8.90;;;17.20;67.20;;;;;;4840098;29;20054;-64
2021/04/21 10:51:36;;;;;;;16.95;7.93;;;17.20;66.20;;;;;;4857493;29;20449;-64
2021/04/21 10:54:07;;;;;;;15.48;7.57;;;17.10;68.20;;;;;;4845839;29;20073;-63
2021/04/21 10:56:36;;;;;;;15.77;8.73;;;17.00;62.30;;;;;;4823171;29;20082;-64
2021/04/21 10:59:04;;;;;;;13.63;7.70;;;17.00;65.40;;;;;;4853237;29;20049;-64
2021/04/21 11:01:39;;;;;;;13.10;7.15;;;17.00;67.00;;;;;;4850761;29;20682;-63
2021/04/21 11:04:07;;;;;;;14.05;7.93;;;16.90;65.60;;;;;;4847320;29;20673;-64
2021/04/21 11:06:39;;;;;;;20.77;9.20;;;16.80;64.80;;;;;;4828249;29;20401;-64
2021/04/21 11:09:08;;;;;;;16.80;8.32;;;16.70;63.90;;;;;;4856506;29;20068;-64
2021/04/21 11:11:36;;;;;;;16.40;7.90;;;16.70;65.30;;;;;;4851758;29;20550;-64
2021/04/21 11:14:03;;;;;;;11.13;6.22;;;16.50;68.00;;;;;;4851227;29;20041;-64
2021/04/21 11:16:35;;;;;;;13.40;8.05;;;16.30;67.10;;;;;;4831971;29;20048;-64
2021/04/21 11:19:20;;;;;;;11.45;6.70;;;16.30;68.60;;;;;;4837788;29;20065;-64
2021/04/21 11:21:48;;;;;;;14.18;5.95;;;15.80;67.10;;;;;;4851144;29;20084;-64
2021/04/21 11:24:15;;;;;;;15.20;8.05;;;15.40;77.00;;;;;;4835134;29;20050;-64
2021/04/21 11:26:44;;;;;;;15.52;8.93;;;14.90;82.10;;;;;;4841996;29;20049;-68
2021/04/21 11:29:31;;;;;;;18.88;9.45;;;14.60;90.30;;;;;;4850615;29;20042;-63
2021/04/21 11:32:00;;;;;;;15.80;8.70;;;14.50;98.10;;;;;;4814616;29;20104;-63
2021/04/21 11:34:35;;;;;;;13.48;6.80;;;14.30;91.90;;;;;;4835130;29;20046;-62
2021/04/21 11:37:06;;;;;;;11.90;5.95;;;14.10;91.20;;;;;;4830902;29;20054;-62
2021/04/21 11:39:42;;;;;;;9.98;5.15;;;14.10;91.60;;;;;;4851728;29;20061;-63
2021/04/21 11:42:28;;;;;;;13.13;6.07;;;14.10;85.60;;;;;;4849228;29;20057;-62
2021/04/21 11:45:04;;;;;;;8.38;4.82;;;14.10;90.20;;;;;;4843036;29;20516;-66
2021/04/21 11:47:35;;;;;;;7.82;5.05;;;14.20;90.50;;;;;;4846372;29;20042;-62
2021/04/21 11:50:04;;;;;;;7.82;4.88;;;14.30;92.00;;;;;;4832679;29;20049;-62
2021/04/21 11:53:02;;;;;;;8.77;5.25;;;14.50;93.80;;;;;;4830799;29;20613;-67
2021/04/21 11:55:37;;;;;;;10.77;5.95;;;14.60;92.20;;;;;;4844170;29;20072;-67
2021/04/21 11:58:07;;;;;;;10.13;6.38;;;14.70;91.30;;;;;;4850741;29;20044;-67
2021/04/21 12:00:36;;;;;;;11.35;6.68;;;14.80;95.70;;;;;;4851971;29;20374;-66
2021/04/21 12:03:05;;;;;;;9.82;5.90;;;14.90;98.40;;;;;;4832871;29;20052;-66
2021/04/21 12:05:36;;;;;;;9.27;6.25;;;14.90;95.10;;;;;;4847105;29;20037;-67
2021/04/21 12:08:06;;;;;;;12.30;6.53;;;14.90;93.20;;;;;;4836312;29;20052;-66
2021/04/21 12:10:34;;;;;;;9.93;5.53;;;14.90;91.40;;;;;;4858483;29;20049;-66
2021/04/21 12:13:10;;;;;;;7.20;4.28;;;14.90;85.70;;;;;;4847061;29;20038;-66
2021/04/21 12:15:38;;;;;;;6.70;4.50;;;14.80;82.70;;;;;;4841167;29;20391;-66
2021/04/21 12:18:05;;;;;;;6.60;2.63;;;14.80;85.20;;;;;;4857457;29;20041;-66
2021/04/21 12:20:32;;;;;;;5.40;3.78;;;14.80;78.40;;;;;;4843374;29;20128;-65
2021/04/21 12:22:59;;;;;;;3.78;2.63;;;14.90;88.00;;;;;;4859039;29;20078;-62
2021/04/21 12:25:29;;;;;;;4.20;2.85;;;14.90;84.80;;;;;;4862599;29;20044;-62
2021/04/21 12:27:58;;;;;;;3.28;2.28;;;15.00;82.80;;;;;;4847492;29;20109;-62
2021/04/21 12:30:31;;;;;;;5.80;2.85;;;15.40;82.50;;;;;;4837754;29;20464;-62
2021/04/21 12:33:15;;;;;;;3.55;2.17;;;15.90;83.10;;;;;;4857118;29;20805;-62
2021/04/21 12:35:42;;;;;;;2.70;2.10;;;16.30;73.10;;;;;;4840003;29;20102;-62
2021/04/21 12:38:09;;;;;;;3.20;2.25;;;16.50;69.60;;;;;;4844027;29;20076;-62
2021/04/21 12:40:35;;;;;;;4.40;2.67;;;16.50;73.80;;;;;;4857828;29;20084;-62
2021/04/21 12:43:16;;;;;;;6.68;3.05;;;16.50;72.00;;;;;;4844709;29;20084;-61
2021/04/21 12:45:44;;;;;;;4.05;3.10;;;16.40;66.00;;;;;;4859414;29;20075;-62
2021/04/21 12:48:24;;;;;;;4.07;3.25;;;16.30;66.90;;;;;;4857615;29;20049;-62
2021/04/21 12:50:56;;;;;;;5.82;3.35;;;16.30;71.40;;;;;;4844802;29;20056;-62
2021/04/21 12:53:30;;;;;;;5.30;3.30;;;16.20;71.00;;;;;;4843574;29;20396;-62
2021/04/21 12:56:08;;;;;;;5.68;3.55;;;16.00;84.30;;;;;;4856816;29;20065;-62
2021/04/21 12:58:41;;;;;;;6.88;4.80;;;15.80;84.90;;;;;;4853409;29;20502;-64
2021/04/21 13:01:22;;;;;;;8.45;4.85;;;15.80;83.70;;;;;;4850093;29;20060;-64
2021/04/21 13:04:03;;;;;;;8.88;5.30;;;15.80;82.80;;;;;;4857888;29;20513;-64
2021/04/21 13:06:37;;;;;;;7.78;5.30;;;15.80;84.10;;;;;;4856904;29;20046;-64
2021/04/21 13:09:09;;;;;;;8.38;5.15;;;16.00;85.00;;;;;;4841942;29;20085;-64
2021/04/21 13:11:37;;;;;;;9.23;5.38;;;16.60;86.60;;;;;;4845569;29;20056;-63
2021/04/21 13:14:05;;;;;;;7.47;5.43;;;17.20;84.30;;;;;;4854730;29;20038;-62
2021/04/21 13:16:35;;;;;;;7.28;5.70;;;17.90;80.50;;;;;;4855700;29;20083;-62